Weather reports worldwide

Advertisment
Ripoll, Spain (8118): temperature & dewpoint: 13.07.2018 13:00:00 - 19.07.2018 13:00:00 (CEST)Ripoll, Spain (8118): wind speed & gusts: 13.07.2018 13:00:00 - 19.07.2018 13:00:00 (CEST)Ripoll, Spain (8118): wind direction: 13.07.2018 13:00:00 - 19.07.2018 13:00:00 (CEST)Ripoll, Spain (8118): precipitation: 13.07.2018 13:00:00 - 19.07.2018 13:00:00 (CEST)
Date & Time tt [°C] td [°C] ff [km/h] ff [kn] fx [km/h] fx [kn] dd rr [mm]
19.07.2018 13:00:00 27,6 19,1 5 3 14 7 S 0,0
19.07.2018 12:00:00 26,0 16,8 9 5 16 9 S 0,0
19.07.2018 11:00:00 23,9 17,1 4 2 7 4 SE 0,0
19.07.2018 10:00:00 20,5 17,7 2 1 10 5 SSE 0,0
19.07.2018 09:00:00 16,8 16,3 3 2 10 6 N 0,0
19.07.2018 08:00:00 15,2 15,1 1 1 16 8 NNE -
19.07.2018 07:00:00 14,6 14,4 1 1 6 4 N 0,0
19.07.2018 06:00:00 15,0 14,5 1 1 5 3 N 0,0
19.07.2018 05:00:00 15,4 14,6 0 0 6 3 N 0,0
19.07.2018 04:00:00 15,8 15,3 0 0 8 4 N 0,0
19.07.2018 03:00:00 16,8 16,5 1 1 7 4 SSE 0,0
19.07.2018 02:00:00 17,8 16,6 0 0 5 3 SE -
19.07.2018 01:00:00 18,7 16,3 2 1 5 3 SSE 0,0
19.07.2018 00:00:00 19,8 17,2 2 1 5 3 S 0,0
18.07.2018 23:00:00 21,3 15,6 0 0 5 3 ESE 0,0
18.07.2018 22:00:00 22,4 17,3 3 2 9 5 SSE 0,0
18.07.2018 21:00:00 24,9 14,0 6 3 18 10 S 0,0
18.07.2018 20:00:00 28,7 14,9 6 3 20 11 S -
18.07.2018 19:00:00 29,1 14,9 9 5 26 14 S 0,0
18.07.2018 18:00:00 30,0 14,9 9 5 19 10 S 0,0
18.07.2018 17:00:00 29,8 13,9 10 5 20 11 SSE 0,0
18.07.2018 16:00:00 29,4 14,8 10 5 22 12 S 0,0
18.07.2018 15:00:00 29,2 17,7 5 3 19 10 SSE 0,0
18.07.2018 14:00:00 28,2 18,0 10 5 21 11 S -
18.07.2018 13:00:00 27,1 20,5 10 6 19 10 SSE 0,0
18.07.2018 12:00:00 25,8 21,9 6 3 19 11 SE 0,0
18.07.2018 11:00:00 23,4 21,5 3 1 9 5 SE 0,0
18.07.2018 10:00:00 19,9 18,0 1 0 5 3 SSE 0,0
18.07.2018 09:00:00 16,3 16,1 2 1 6 3 NNW 0,0
18.07.2018 08:00:00 14,8 14,6 0 0 0 0 N -
18.07.2018 07:00:00 14,7 14,5 0 0 0 0 N 0,0
18.07.2018 06:00:00 15,1 - 0 0 4 2 N 0,0
18.07.2018 05:00:00 15,3 15,2 0 0 0 0 N 0,0
18.07.2018 04:00:00 15,7 15,3 0 0 4 2 N 0,0
18.07.2018 03:00:00 16,5 16,3 0 0 0 0 N 0,0
18.07.2018 02:00:00 17,3 17,1 0 0 4 2 N -
18.07.2018 01:00:00 18,2 16,7 0 0 1 1 N 0,0
18.07.2018 00:00:00 19,2 16,6 0 0 5 3 ESE 0,0
17.07.2018 23:00:00 20,5 17,1 1 0 6 4 SSE 0,0
17.07.2018 22:00:00 22,3 17,2 2 1 8 5 NE 0,0
17.07.2018 21:00:00 24,2 17,2 1 1 17 9 ENE 0,0
17.07.2018 20:00:00 26,8 16,7 3 2 15 8 ENE -
17.07.2018 19:00:00 25,8 16,4 4 2 15 8 NE 0,0
17.07.2018 18:00:00 26,5 16,7 1 0 8 5 ENE 0,0
17.07.2018 17:00:00 25,6 15,9 3 2 15 8 ESE 0,0
17.07.2018 16:00:00 27,0 15,7 5 3 19 10 ESE 0,0
17.07.2018 15:00:00 27,2 15,5 9 5 22 12 S 0,0
17.07.2018 14:00:00 26,3 15,1 5 3 17 9 SE -
17.07.2018 13:00:00 25,0 14,7 8 4 22 12 SSE 0,0
17.07.2018 12:00:00 23,8 14,8 8 4 17 9 SE 0,0
17.07.2018 11:00:00 21,8 14,9 6 3 13 7 SSE 0,0
17.07.2018 10:00:00 17,5 13,7 3 1 6 3 SE 0,0
17.07.2018 09:00:00 13,8 12,5 1 0 3 2 SSE 0,0
17.07.2018 08:00:00 12,0 11,1 1 1 8 5 NE -
17.07.2018 07:00:00 11,7 10,6 0 0 5 3 NE 0,0
17.07.2018 06:00:00 12,1 10,6 1 0 6 3 NNE 0,0
17.07.2018 05:00:00 12,6 11,0 0 0 5 3 ENE 0,0
17.07.2018 04:00:00 13,5 11,7 0 0 4 2 SSE 0,0
17.07.2018 03:00:00 14,1 12,0 0 0 8 4 E 0,0
17.07.2018 02:00:00 14,9 12,0 1 1 8 4 NNW -
17.07.2018 01:00:00 16,0 14,3 0 0 7 4 SE 0,0
17.07.2018 00:00:00 17,3 14,9 0 0 9 5 ENE 0,0
16.07.2018 23:00:00 18,3 14,4 1 0 8 4 E 0,0
16.07.2018 22:00:00 19,7 13,4 4 2 16 8 N 0,0
16.07.2018 21:00:00 22,6 10,4 2 1 21 11 ENE 0,0
16.07.2018 20:00:00 26,9 12,1 3 1 16 9 NW -
16.07.2018 19:00:00 26,8 12,1 7 4 16 9 NW 0,0
16.07.2018 18:00:00 24,8 15,2 2 1 17 9 SSE 0,0
16.07.2018 17:00:00 26,5 14,9 7 4 23 13 SSE 0,0
16.07.2018 16:00:00 26,2 15,9 5 3 40 21 NW 0,1
16.07.2018 15:00:00 22,1 15,0 2 1 11 6 SE 0,0
16.07.2018 14:00:00 21,2 17,2 2 1 14 7 NNE -
16.07.2018 13:00:00 17,3 14,6 10 5 19 10 S 0,0
16.07.2018 12:00:00 18,0 17,1 4 2 12 7 SSE 0,7
16.07.2018 11:00:00 18,4 17,1 0 0 14 8 S 0,2
16.07.2018 10:00:00 18,3 16,8 5 3 13 7 S 0,2
16.07.2018 09:00:00 18,6 16,6 1 1 11 6 ESE 0,0
16.07.2018 08:00:00 18,3 17,9 1 1 9 5 NNW -
16.07.2018 07:00:00 17,5 17,4 1 1 13 7 NNW 0,0
16.07.2018 06:00:00 17,1 17,0 3 2 16 9 NE 0,0
16.07.2018 05:00:00 16,9 16,7 4 2 19 10 N 0,0
16.07.2018 04:00:00 17,2 16,4 3 1 16 9 N 0,0
16.07.2018 03:00:00 17,7 16,7 1 0 13 7 N 0,0
16.07.2018 02:00:00 18,2 17,1 0 0 10 5 N -
16.07.2018 01:00:00 18,7 16,5 0 0 4 2 E 0,0
16.07.2018 00:00:00 19,7 16,7 1 1 4 2 SE 0,0
15.07.2018 23:00:00 21,1 16,3 0 0 6 3 ESE 0,0
15.07.2018 22:00:00 23,2 18,3 0 0 5 3 SE 0,0
15.07.2018 21:00:00 25,6 17,0 1 0 13 7 E 0,0
15.07.2018 20:00:00 28,5 16,4 4 2 15 8 S -
15.07.2018 19:00:00 31,2 15,6 7 4 22 12 SSW 0,0
15.07.2018 18:00:00 31,7 14,3 8 5 22 12 SSE 0,0
15.07.2018 17:00:00 31,8 14,4 7 4 24 13 S 0,0
15.07.2018 16:00:00 31,3 15,3 9 5 24 13 S 0,0
15.07.2018 15:00:00 29,8 19,5 10 5 20 11 SSE 0,0
15.07.2018 14:00:00 29,4 20,8 9 5 19 10 S -
15.07.2018 13:00:00 28,4 13,9 8 5 17 9 S 0,0
15.07.2018 12:00:00 26,7 21,0 5 3 12 7 SSE 0,0
15.07.2018 11:00:00 24,0 20,7 2 1 4 2 ESE 0,0
15.07.2018 10:00:00 20,9 16,5 3 2 12 7 SSE 0,0
15.07.2018 09:00:00 17,3 15,3 4 2 10 5 N 0,0
15.07.2018 08:00:00 15,4 14,1 0 0 8 4 SE -
15.07.2018 07:00:00 15,0 13,8 0 0 11 6 NNE 0,0
15.07.2018 06:00:00 15,5 14,3 1 1 16 9 N 0,0
15.07.2018 05:00:00 15,6 15,4 1 0 6 3 N 0,0
15.07.2018 04:00:00 16,2 15,9 1 0 7 4 N 0,0
15.07.2018 03:00:00 16,7 15,3 0 0 4 2 NW 0,0
15.07.2018 02:00:00 17,3 15,4 1 0 5 3 SSE -
15.07.2018 01:00:00 18,3 16,3 3 1 4 2 SSE 0,0
15.07.2018 00:00:00 19,1 15,5 1 0 4 2 SE 0,0
14.07.2018 23:00:00 20,7 15,7 1 1 5 3 NE 0,0
14.07.2018 22:00:00 22,9 17,8 1 1 11 6 S 0,0
14.07.2018 21:00:00 25,6 16,7 2 1 11 6 NE 0,0
14.07.2018 20:00:00 29,5 15,6 3 2 11 6 WSW -
14.07.2018 19:00:00 31,0 15,8 5 3 14 8 S 0,0
14.07.2018 18:00:00 31,2 14,8 4 2 16 9 S 0,0
14.07.2018 17:00:00 30,6 17,3 6 3 21 12 SSW 0,0
14.07.2018 16:00:00 30,0 19,1 8 4 23 13 SSE 0,0
14.07.2018 15:00:00 29,3 19,9 8 4 19 10 SSE 0,0
14.07.2018 14:00:00 28,7 19,9 9 5 19 10 S -
14.07.2018 13:00:00 27,5 19,6 4 2 10 5 SE 0,0
14.07.2018 12:00:00 26,2 17,9 3 1 6 3 SE 0,0
14.07.2018 11:00:00 23,7 19,4 3 1 5 3 SE 0,0
14.07.2018 10:00:00 20,6 18,2 0 0 7 4 NNE 0,0
14.07.2018 09:00:00 17,8 17,5 2 1 8 4 N 0,0
14.07.2018 08:00:00 16,4 16,2 1 1 13 7 N -
14.07.2018 07:00:00 16,3 16,1 1 0 10 5 N 0,0
14.07.2018 06:00:00 16,8 16,6 1 1 9 5 N 0,0
14.07.2018 05:00:00 17,2 17,1 0 0 12 6 E 0,0
14.07.2018 04:00:00 17,9 17,1 1 1 13 7 NNE 0,0
14.07.2018 03:00:00 18,4 18,2 0 0 8 4 WSW 0,0
14.07.2018 02:00:00 18,9 18,8 1 1 10 6 N -
14.07.2018 01:00:00 19,3 17,9 2 1 6 4 N 0,0
14.07.2018 00:00:00 20,1 16,9 2 1 5 3 N 0,0
13.07.2018 23:00:00 20,9 19,2 0 0 4 2 NE 0,0
13.07.2018 22:00:00 21,7 18,1 0 0 5 3 SSW 0,0
13.07.2018 21:00:00 23,2 16,7 0 0 4 2 N 0,0
13.07.2018 20:00:00 25,0 15,3 3 2 22 12 SSE -
13.07.2018 19:00:00 26,6 16,0 6 4 16 9 S 0,0
13.07.2018 18:00:00 29,2 17,4 2 1 8 5 ENE 0,0
13.07.2018 17:00:00 28,0 15,3 6 4 11 6 S 0,0
13.07.2018 16:00:00 27,6 16,0 4 2 15 8 S 0,0
13.07.2018 15:00:00 28,4 14,6 8 4 20 11 SSE 0,0
13.07.2018 14:00:00 28,0 15,0 10 5 19 11 S -
13.07.2018 13:00:00 27,2 20,8 6 3 13 7 SSE 0,0

tt = temperature
td = dewpoint
ff = wind speed
fx = gusts
dd = wind direction
rr = precipitation

Next stations